Toledo, España

7:02 PM CEST en Julio 04, 2015 (GMT +0200)
Madrid Cuatro Vientos | | Change Station
CLOSE
Current Station
Aeropuerto
Location: Madrid Cuatro Vientos,
Altura: 2254 ft
Estaciones meteorológicas cercanas
Aviso en curso: Extreme high temperature

Alt 2254 ft 40.38 °N, 3.79 °W | Updated 32 minutes ago

Clear
Despejado
99 ° F
Sensación térmica 99 ° F
N
7
Viento Variable Viento desde SSO

Hoy
Alta -- | Baja -- ° F
--% Posibilidad de precipitaciones
Ayer
Alta -- | Baja -- ° F
Precip. -- pul
6:52 AM 9:48 PM
Gibosa menguante, 91% visible
Presión 30.12 pul
Visibilidad -9999.0 Millas
Nubes
Punto de rocío 43 ° F
Humedad 15%
Precipitaciones 0.00 pul
Espesor de la nieve No disponible.
UV No disponible.
Polen No disponible.
Calidad del aire No disponible.
Flu Activity No disponible.
METAR LEVS 041630Z 21006KT 110V260 CAVOK 37/06 Q1020

More Conditions Fewer Conditions

Presión 30.12 pul
Visibilidad -9999.0 Millas
Nubes
Punto de rocío 43 ° F
Humedad 15%
Precipitaciones 0.00 pul
Espesor de la nieve No disponible.
UV No disponible.
Polen No disponible.
Calidad del aire No disponible.
Flu Activity No disponible.
METAR LEVS 041630Z 21006KT 110V260 CAVOK 37/06 Q1020

More Conditions Fewer Conditions

10-Day Weather Forecast

×

Almanac

Astronomía

Jul. 04, 2015 Salida Puesta
Hora real
Crepúsculo civil
Crepúsculo náutico
Crepúsculo astronómico
Luna
Horas de luz
Horas de luz
Tomorrow will be .
, % of the Moon is Illuminated

Extremos de hoy

Máximos del país Bajas del país

Community

WunderPhotos

Upload Photos

1,835,003 ¡fotos cargadas!

WunderBlogs® & News

Nearby

Calidad del aire

  Calidad del aire Índice AQ Contaminante
Not available.

Grosos de nieve

Estación Profundido Altura

Actividad de terremotos

Ciudad Distance Mag. Tiempo y dato
Magnitud mínima muestra es 2,5.

Temperaturas de aguas costeras

Lugar Temperatura

Stations

Estaciones meteorológicas cercanas

Ubicación de la estación Temp. Vientos helados Punto de rocío Humedad Viento Precip. Alt Actualizado Tipo